Time;durP1;ratioP1;P1;durP2;ratioP2;P2;SDS_P1;SDS_P2;PMS_P1;PMS_P2;Temp;Humidity;BMP_temperature;BMP_pressure;BME280_temperature;BME280_humidity;BME280_pressure;Samples;Min_cycle;Max_cycle;Signal;HPM_P1;HPM_P2
2023/04/11 00:01:28;;;;;;;27.23;4.10;;;10.10;99.90;;;;;;5099644;28;20100;-66
2023/04/11 00:03:55;;;;;;;23.15;3.92;;;10.00;99.90;;;;;;5116553;28;20024;-69
2023/04/11 00:06:22;;;;;;;28.70;4.28;;;10.00;99.90;;;;;;5119203;28;20070;-63
2023/04/11 00:08:48;;;;;;;30.90;4.13;;;9.90;99.90;;;;;;5121481;28;20119;-69
2023/04/11 00:11:14;;;;;;;27.65;4.18;;;9.80;99.90;;;;;;5121429;28;20114;-67
2023/04/11 00:13:44;;;;;;;26.92;4.28;;;9.90;99.90;;;;;;5120593;28;20030;-67
2023/04/11 00:16:10;;;;;;;27.80;4.75;;;9.90;99.90;;;;;;5121717;28;20123;-66
2023/04/11 00:18:38;;;;;;;30.52;4.38;;;9.80;99.90;;;;;;5103419;28;20035;-69
2023/04/11 00:21:05;;;;;;;28.92;4.65;;;9.80;99.90;;;;;;5121702;28;20080;-68
2023/04/11 00:23:31;;;;;;;27.02;4.72;;;9.80;99.90;;;;;;5121064;28;20050;-67
2023/04/11 00:25:57;;;;;;;27.48;4.50;;;9.80;99.90;;;;;;5121620;28;20405;-70
2023/04/11 00:28:23;;;;;;;30.95;3.90;;;9.80;99.90;;;;;;5120378;28;20106;-67
2023/04/11 00:30:49;;;;;;;25.05;4.43;;;9.90;99.90;;;;;;5121569;28;20098;-67
2023/04/11 00:33:15;;;;;;;26.90;4.75;;;9.90;99.90;;;;;;5120208;28;20393;-66
2023/04/11 00:35:41;;;;;;;31.42;4.30;;;9.80;99.90;;;;;;5120879;28;20035;-68
2023/04/11 00:38:07;;;;;;;18.48;3.67;;;9.80;99.90;;;;;;5120850;28;20129;-64
2023/04/11 00:40:33;;;;;;;23.00;3.90;;;9.80;99.90;;;;;;5103351;28;20440;-72
2023/04/11 00:42:59;;;;;;;29.63;5.10;;;9.80;99.90;;;;;;5119907;28;20051;-69
2023/04/11 00:45:26;;;;;;;32.05;4.00;;;9.70;99.90;;;;;;5120083;28;20036;-67
2023/04/11 00:47:52;;;;;;;27.70;4.28;;;9.70;99.90;;;;;;5119990;28;20142;-69
2023/04/11 00:50:21;;;;;;;29.20;4.20;;;9.70;99.90;;;;;;5120642;28;20339;-65
2023/04/11 00:52:49;;;;;;;28.60;4.05;;;9.70;99.90;;;;;;5120504;28;20114;-64
2023/04/11 00:55:16;;;;;;;27.75;4.13;;;9.70;99.90;;;;;;5119922;28;20039;-67
2023/04/11 00:57:43;;;;;;;24.65;4.07;;;9.60;99.90;;;;;;5120562;28;20024;-68
2023/04/11 01:00:10;;;;;;;27.70;4.95;;;9.60;99.90;;;;;;5119650;28;20127;-70
2023/04/11 01:02:37;;;;;;;30.50;3.92;;;9.60;99.90;;;;;;5120387;27;20019;-65
2023/04/11 01:05:04;;;;;;;32.70;4.75;;;9.60;99.90;;;;;;5119580;28;20376;-68
2023/04/11 01:07:33;;;;;;;30.52;4.03;;;9.60;99.90;;;;;;5119587;28;20105;-66
2023/04/11 01:10:01;;;;;;;23.00;3.92;;;9.60;99.90;;;;;;5120301;28;20069;-72
2023/04/11 01:12:29;;;;;;;26.60;4.45;;;9.50;99.90;;;;;;5119353;28;20035;-64
2023/04/11 01:14:55;;;;;;;25.13;3.53;;;9.60;99.90;;;;;;5120820;28;20057;-70
2023/04/11 01:17:24;;;;;;;35.05;5.15;;;9.70;99.90;;;;;;5119038;28;20279;-68
2023/04/11 01:19:51;;;;;;;32.08;4.25;;;9.60;99.90;;;;;;5119328;28;20388;-67
2023/04/11 01:22:21;;;;;;;28.70;4.25;;;9.60;99.90;;;;;;5119176;28;20105;-70
2023/04/11 01:24:48;;;;;;;22.92;4.00;;;9.60;99.90;;;;;;5120386;28;20072;-68
2023/04/11 01:27:14;;;;;;;24.05;4.60;;;9.50;99.90;;;;;;5118999;28;20402;-68
2023/04/11 01:29:40;;;;;;;19.85;3.67;;;9.50;99.90;;;;;;5119124;28;20023;-70
2023/04/11 01:32:06;;;;;;;22.92;3.83;;;9.60;99.90;;;;;;5119777;28;20039;-69
2023/04/11 01:34:34;;;;;;;21.45;3.88;;;9.60;99.90;;;;;;5102021;28;20031;-69
2023/04/11 01:37:01;;;;;;;26.25;3.95;;;9.70;99.90;;;;;;5119008;28;20032;-67
2023/04/11 01:39:28;;;;;;;23.33;3.63;;;9.70;99.90;;;;;;5119768;27;20115;-68
2023/04/11 01:41:54;;;;;;;22.75;3.75;;;9.80;99.90;;;;;;5119499;28;20057;-66
2023/04/11 01:44:20;;;;;;;21.38;3.20;;;9.70;99.90;;;;;;5119544;28;20088;-66
2023/04/11 01:46:46;;;;;;;25.75;4.15;;;9.80;99.90;;;;;;5119579;27;20333;-71
2023/04/11 01:49:17;;;;;;;21.90;3.05;;;9.80;99.90;;;;;;5119654;28;20023;-70
2023/04/11 01:51:44;;;;;;;22.33;3.95;;;9.90;99.90;;;;;;5118789;28;20039;-71
2023/04/11 01:54:09;;;;;;;20.52;3.45;;;9.90;99.90;;;;;;5118680;28;20035;-68
2023/04/11 01:56:37;;;;;;;26.10;3.30;;;9.90;99.90;;;;;;5119540;28;20046;-63
2023/04/11 01:59:03;;;;;;;21.02;3.40;;;9.70;99.90;;;;;;5118526;28;20035;-67
2023/04/11 02:01:29;;;;;;;22.13;3.28;;;9.60;99.90;;;;;;5118453;28;20027;-71
2023/04/11 02:03:56;;;;;;;25.00;3.58;;;9.50;99.90;;;;;;5119250;28;20027;-71
2023/04/11 02:06:22;;;;;;;23.02;3.25;;;9.50;99.90;;;;;;5119143;28;20416;-64
2023/04/11 02:08:48;;;;;;;20.38;3.30;;;9.50;99.90;;;;;;5119121;28;20027;-71
2023/04/11 02:11:14;;;;;;;20.45;3.63;;;9.40;99.90;;;;;;5118971;28;20043;-68
2023/04/11 02:13:39;;;;;;;22.88;3.35;;;9.50;99.90;;;;;;5118841;28;20127;-64
2023/04/11 02:16:07;;;;;;;24.02;3.42;;;9.40;99.90;;;;;;5118149;28;20032;-69
2023/04/11 02:18:33;;;;;;;19.35;3.33;;;9.30;99.90;;;;;;5118892;28;20032;-70
2023/04/11 02:21:01;;;;;;;18.05;3.58;;;9.20;99.90;;;;;;5118903;28;20489;-63
2023/04/11 02:23:27;;;;;;;19.80;3.10;;;9.20;99.90;;;;;;5118352;28;20118;-65
2023/04/11 02:25:53;;;;;;;22.10;3.60;;;9.10;99.90;;;;;;5118027;28;20045;-67
2023/04/11 02:28:19;;;;;;;23.35;3.78;;;9.10;99.90;;;;;;5118367;28;20394;-69
2023/04/11 02:30:44;;;;;;;23.13;3.83;;;9.20;99.90;;;;;;5118654;28;20123;-64
2023/04/11 02:33:10;;;;;;;24.17;3.80;;;9.10;99.90;;;;;;5118547;28;20039;-69
2023/04/11 02:35:36;;;;;;;17.17;3.35;;;9.10;99.90;;;;;;5100853;28;20300;-65
2023/04/11 02:38:02;;;;;;;22.98;3.95;;;9.10;99.90;;;;;;5100816;28;20067;-63
2023/04/11 02:40:29;;;;;;;22.55;3.05;;;9.10;99.90;;;;;;5117870;28;20039;-65
2023/04/11 02:42:55;;;;;;;19.23;3.47;;;9.10;99.90;;;;;;5118431;28;20090;-65
2023/04/11 02:45:21;;;;;;;20.92;3.40;;;9.10;99.90;;;;;;5117615;28;20032;-65
2023/04/11 02:47:47;;;;;;;25.73;3.58;;;9.00;99.90;;;;;;5117441;28;20312;-66
2023/04/11 02:50:13;;;;;;;25.58;3.67;;;9.00;99.90;;;;;;5117598;28;20412;-69
2023/04/11 02:52:46;;;;;;;24.58;3.97;;;9.00;99.90;;;;;;5117410;28;20036;-66
2023/04/11 02:55:12;;;;;;;21.15;3.00;;;9.00;99.90;;;;;;5117475;28;20119;-68
2023/04/11 02:57:38;;;;;;;26.00;3.80;;;9.00;99.90;;;;;;5117319;28;20169;-67
2023/04/11 03:00:08;;;;;;;21.02;3.03;;;8.90;99.90;;;;;;5117648;28;20042;-67
2023/04/11 03:02:43;;;;;;;26.38;3.58;;;8.90;99.90;;;;;;5101655;28;20139;-67
2023/04/11 03:05:09;;;;;;;20.35;3.35;;;9.00;99.90;;;;;;5117631;28;20414;-68
2023/04/11 03:07:39;;;;;;;21.85;3.25;;;9.10;99.90;;;;;;5117176;28;20047;-62
2023/04/11 03:10:06;;;;;;;20.02;3.35;;;9.00;99.90;;;;;;5117363;28;20051;-66
2023/04/11 03:12:32;;;;;;;25.88;4.05;;;8.90;99.90;;;;;;5116912;28;20032;-66
2023/04/11 03:15:02;;;;;;;16.38;2.70;;;8.90;99.90;;;;;;5117085;28;20027;-71
2023/04/11 03:17:28;;;;;;;21.63;3.85;;;8.90;99.90;;;;;;5117032;28;20059;-63
2023/04/11 03:19:55;;;;;;;24.90;3.80;;;8.90;99.90;;;;;;5117053;28;20027;-66
2023/04/11 03:22:22;;;;;;;22.42;3.25;;;8.80;99.90;;;;;;5117030;28;20377;-65
2023/04/11 03:24:48;;;;;;;17.52;2.67;;;8.90;99.90;;;;;;5116916;28;20047;-66
2023/04/11 03:27:15;;;;;;;22.55;3.47;;;8.80;99.90;;;;;;5116861;28;20034;-65
2023/04/11 03:29:43;;;;;;;26.65;3.35;;;8.80;99.90;;;;;;5117091;28;20047;-66
2023/04/11 03:32:17;;;;;;;18.58;3.42;;;8.80;99.90;;;;;;5100782;28;20035;-63
2023/04/11 03:34:42;;;;;;;21.33;3.42;;;8.70;99.90;;;;;;5116810;28;20031;-65
2023/04/11 03:37:10;;;;;;;27.00;3.20;;;8.70;99.90;;;;;;5083305;28;20331;-66
2023/04/11 03:39:37;;;;;;;22.42;3.38;;;8.70;99.90;;;;;;5117238;28;20087;-69
2023/04/11 03:42:03;;;;;;;23.17;3.42;;;8.60;99.90;;;;;;5115890;28;20039;-71
2023/04/11 03:44:30;;;;;;;19.08;3.25;;;8.60;99.90;;;;;;5116653;28;20316;-69
2023/04/11 03:46:56;;;;;;;22.20;3.40;;;8.70;99.90;;;;;;5117272;28;20028;-68
2023/04/11 03:49:25;;;;;;;22.33;3.10;;;8.80;99.90;;;;;;5116868;28;20126;-66
2023/04/11 03:51:54;;;;;;;16.17;2.83;;;8.80;99.90;;;;;;5116524;28;20082;-67
2023/04/11 03:54:20;;;;;;;13.90;2.80;;;8.70;99.90;;;;;;5116385;28;20058;-67
2023/04/11 03:56:47;;;;;;;20.48;3.42;;;8.80;99.90;;;;;;5116515;28;20031;-69
2023/04/11 03:59:20;;;;;;;22.00;3.20;;;8.80;99.90;;;;;;5116417;28;20119;-68
2023/04/11 04:01:57;;;;;;;14.40;2.80;;;8.80;99.90;;;;;;5116411;28;20039;-68
2023/04/11 04:04:23;;;;;;;20.65;3.10;;;8.70;99.90;;;;;;5082774;28;20304;-69
2023/04/11 04:06:58;;;;;;;14.45;2.15;;;8.70;99.90;;;;;;5100901;28;20114;-71
2023/04/11 04:09:32;;;;;;;15.85;2.05;;;8.70;99.90;;;;;;5116446;28;20313;-68
2023/04/11 04:11:57;;;;;;;14.98;2.20;;;8.70;99.90;;;;;;5116385;28;20036;-69
2023/04/11 04:14:34;;;;;;;15.70;2.65;;;8.70;99.90;;;;;;5116481;28;20036;-69
2023/04/11 04:16:59;;;;;;;16.15;2.25;;;8.70;99.90;;;;;;5116372;28;20034;-68
2023/04/11 04:19:27;;;;;;;20.05;3.00;;;8.70;99.90;;;;;;5099612;28;20089;-69
2023/04/11 04:21:56;;;;;;;16.67;3.10;;;8.70;99.90;;;;;;5099372;28;20024;-69
2023/04/11 04:24:28;;;;;;;18.23;2.85;;;8.70;99.90;;;;;;5116522;28;20122;-66
2023/04/11 04:27:10;;;;;;;18.05;2.80;;;8.60;99.90;;;;;;5116271;28;20034;-67
2023/04/11 04:29:45;;;;;;;14.43;2.63;;;8.50;99.90;;;;;;5100371;28;20374;-68
2023/04/11 04:32:22;;;;;;;18.75;2.88;;;8.60;99.90;;;;;;5116270;28;20028;-66
2023/04/11 04:34:54;;;;;;;14.77;2.78;;;8.60;99.90;;;;;;5116283;28;20031;-71
2023/04/11 04:37:38;;;;;;;13.45;2.20;;;8.60;99.90;;;;;;5116072;28;20350;-69
2023/04/11 04:40:19;;;;;;;15.68;2.45;;;8.60;99.90;;;;;;5102004;28;20262;-65
2023/04/11 04:43:07;;;;;;;17.75;2.58;;;8.40;99.90;;;;;;5101781;28;20047;-71
2023/04/11 04:45:51;;;;;;;15.65;2.30;;;8.40;99.90;;;;;;5116198;28;20123;-68
2023/04/11 04:48:24;;;;;;;9.32;1.98;;;8.40;99.90;;;;;;5115931;28;20042;-67
2023/04/11 04:50:50;;;;;;;14.23;2.08;;;8.50;99.90;;;;;;5115965;28;20296;-71
2023/04/11 04:53:17;;;;;;;19.65;2.55;;;8.40;99.90;;;;;;5119820;28;20032;-69
2023/04/11 04:55:47;;;;;;;13.77;2.25;;;8.40;99.90;;;;;;5119779;28;20099;-67
2023/04/11 04:58:15;;;;;;;14.70;2.45;;;8.40;99.90;;;;;;5119497;28;20039;-70
2023/04/11 05:00:41;;;;;;;16.65;2.13;;;8.40;99.90;;;;;;5120374;28;20031;-70
2023/04/11 05:03:19;;;;;;;11.75;2.25;;;8.40;99.90;;;;;;5119858;28;20034;-69
2023/04/11 05:05:48;;;;;;;14.25;2.22;;;8.40;99.90;;;;;;5120485;27;20066;-70
2023/04/11 05:08:21;;;;;;;12.55;2.15;;;8.40;99.90;;;;;;5119500;28;20032;-70
2023/04/11 05:10:47;;;;;;;12.23;2.15;;;8.40;99.90;;;;;;5119392;28;20027;-67
2023/04/11 05:13:13;;;;;;;11.07;2.08;;;8.40;99.90;;;;;;5119904;28;20068;-67
2023/04/11 05:15:39;;;;;;;11.88;2.25;;;8.30;99.90;;;;;;5119351;28;20396;-68
2023/04/11 05:18:05;;;;;;;12.00;2.22;;;8.20;99.90;;;;;;5119041;28;20122;-65
2023/04/11 05:20:33;;;;;;;12.52;2.00;;;8.10;99.90;;;;;;5119885;28;20031;-66
2023/04/11 05:22:59;;;;;;;9.80;1.50;;;8.10;99.90;;;;;;5119232;28;20054;-66
2023/04/11 05:25:25;;;;;;;15.35;2.38;;;8.00;99.90;;;;;;5120215;28;20035;-67
2023/04/11 05:27:52;;;;;;;16.23;2.45;;;8.10;99.90;;;;;;5102436;28;20123;-65
2023/04/11 05:30:22;;;;;;;12.93;1.88;;;8.10;99.90;;;;;;5118970;28;20041;-67
2023/04/11 05:32:49;;;;;;;11.60;2.22;;;8.10;99.90;;;;;;5118830;28;20054;-66
2023/04/11 05:35:15;;;;;;;15.07;2.40;;;8.10;99.90;;;;;;5118992;28;20024;-66
2023/04/11 05:37:46;;;;;;;9.98;2.58;;;8.20;99.90;;;;;;5118897;28;20425;-66
2023/04/11 05:40:12;;;;;;;8.95;2.10;;;8.10;99.90;;;;;;5120074;28;20405;-66
2023/04/11 05:42:38;;;;;;;16.75;3.05;;;8.10;99.90;;;;;;5119356;28;20139;-66
2023/04/11 05:45:04;;;;;;;18.27;2.55;;;8.00;99.90;;;;;;5101877;28;20027;-66
2023/04/11 05:47:30;;;;;;;12.32;2.20;;;8.00;99.90;;;;;;5119945;28;20062;-67
2023/04/11 05:49:55;;;;;;;13.23;2.20;;;8.20;99.90;;;;;;5118599;28;20071;-68
2023/04/11 05:52:21;;;;;;;9.93;2.00;;;8.20;99.90;;;;;;5119371;28;20111;-69
2023/04/11 05:54:47;;;;;;;12.93;2.38;;;8.30;99.90;;;;;;5119659;28;20035;-67
2023/04/11 05:57:13;;;;;;;14.57;2.20;;;8.30;99.90;;;;;;5119907;28;20306;-73
2023/04/11 05:59:38;;;;;;;11.90;2.33;;;8.30;99.90;;;;;;5118646;28;20028;-67
2023/04/11 06:02:05;;;;;;;15.13;2.45;;;8.30;99.90;;;;;;5118459;28;20421;-68
2023/04/11 06:04:31;;;;;;;11.13;2.25;;;8.40;99.90;;;;;;5118708;28;20073;-67
2023/04/11 06:06:57;;;;;;;9.75;1.92;;;8.50;99.90;;;;;;5118556;28;20055;-68
2023/04/11 06:09:23;;;;;;;15.32;2.42;;;8.50;99.90;;;;;;5119049;28;20081;-67
2023/04/11 06:11:48;;;;;;;17.00;2.75;;;8.50;99.90;;;;;;5119113;28;20130;-66
2023/04/11 06:14:14;;;;;;;13.73;2.75;;;8.40;99.90;;;;;;5118949;28;20346;-65
2023/04/11 06:16:41;;;;;;;14.23;2.65;;;8.40;99.90;;;;;;5118913;28;20124;-66
2023/04/11 06:19:07;;;;;;;13.88;2.67;;;8.40;99.90;;;;;;5118269;28;20016;-64
2023/04/11 06:21:32;;;;;;;14.00;2.83;;;8.50;99.90;;;;;;5118837;28;20034;-65
2023/04/11 06:24:06;;;;;;;8.73;1.67;;;8.50;99.90;;;;;;5084179;28;20028;-67
2023/04/11 06:26:32;;;;;;;8.52;1.98;;;8.60;99.90;;;;;;5118713;28;20270;-67
2023/04/11 06:28:58;;;;;;;15.32;2.55;;;8.70;99.90;;;;;;5118635;28;20130;-66
2023/04/11 06:31:24;;;;;;;13.98;2.35;;;8.70;99.90;;;;;;5117898;28;20296;-66
2023/04/11 06:33:50;;;;;;;9.35;1.92;;;8.70;99.90;;;;;;5118425;28;20040;-65
2023/04/11 06:36:16;;;;;;;13.35;2.38;;;8.70;99.90;;;;;;5117839;28;20042;-67
2023/04/11 06:38:42;;;;;;;12.68;2.42;;;8.80;99.90;;;;;;5083907;28;20035;-65
2023/04/11 06:41:07;;;;;;;15.38;2.50;;;8.80;99.90;;;;;;5118241;28;20391;-66
2023/04/11 06:43:33;;;;;;;11.68;2.10;;;8.80;99.90;;;;;;5117848;28;20039;-67
2023/04/11 06:46:00;;;;;;;17.17;2.40;;;8.80;99.90;;;;;;5117549;28;20043;-63
2023/04/11 06:48:26;;;;;;;18.67;2.72;;;8.90;99.90;;;;;;5118344;28;20039;-68
2023/04/11 06:50:52;;;;;;;12.93;2.63;;;9.40;99.90;;;;;;5118372;28;20055;-67
2023/04/11 06:53:18;;;;;;;11.48;2.03;;;9.50;98.50;;;;;;5117369;28;20404;-68
2023/04/11 06:55:47;;;;;;;11.60;2.17;;;9.70;95.30;;;;;;5117434;28;20031;-70
2023/04/11 06:58:13;;;;;;;12.70;2.47;;;9.70;93.70;;;;;;5118128;28;20064;-68
2023/04/11 07:00:39;;;;;;;15.77;2.55;;;9.60;93.90;;;;;;5118350;28;20066;-65
2023/04/11 07:03:07;;;;;;;11.43;2.10;;;9.50;93.70;;;;;;5118031;28;20028;-66
2023/04/11 07:05:36;;;;;;;9.63;1.80;;;9.40;96.10;;;;;;5117990;28;20035;-66
2023/04/11 07:08:01;;;;;;;11.70;2.25;;;9.50;95.90;;;;;;5117921;28;20027;-63
2023/04/11 07:10:27;;;;;;;11.55;2.22;;;9.70;93.80;;;;;;5117852;28;20472;-70
2023/04/11 07:12:54;;;;;;;13.10;2.17;;;9.70;92.10;;;;;;5117741;28;20043;-63
2023/04/11 07:15:20;;;;;;;9.95;1.95;;;9.80;92.10;;;;;;5117399;28;20039;-63
2023/04/11 07:17:47;;;;;;;7.82;2.17;;;9.70;91.20;;;;;;5117870;28;20024;-67
2023/04/11 07:20:13;;;;;;;12.80;2.25;;;9.60;92.00;;;;;;5117779;28;20034;-67
2023/04/11 07:22:42;;;;;;;13.35;2.22;;;9.60;92.60;;;;;;5116995;28;20043;-65
2023/04/11 07:25:09;;;;;;;12.25;2.45;;;9.70;90.40;;;;;;5117723;28;20024;-70
2023/04/11 07:27:39;;;;;;;11.02;1.83;;;9.80;88.70;;;;;;5118233;28;20085;-71
2023/04/11 07:30:05;;;;;;;16.60;1.85;;;9.90;85.30;;;;;;5117618;28;20050;-69
2023/04/11 07:32:31;;;;;;;11.25;2.13;;;10.10;85.60;;;;;;5116666;28;20067;-68
2023/04/11 07:34:57;;;;;;;12.05;1.88;;;10.20;85.90;;;;;;5117623;28;20062;-65
2023/04/11 07:37:23;;;;;;;10.98;2.05;;;10.40;82.10;;;;;;5116707;28;20032;-63
2023/04/11 07:39:49;;;;;;;12.07;2.63;;;10.40;78.30;;;;;;5117355;28;20039;-65
2023/04/11 07:42:15;;;;;;;7.93;1.65;;;10.10;78.50;;;;;;5117120;28;20424;-65
2023/04/11 07:44:40;;;;;;;10.27;1.77;;;10.20;77.20;;;;;;5117994;28;20053;-72
2023/04/11 07:47:06;;;;;;;9.02;1.80;;;10.30;69.10;;;;;;5116444;28;20074;-66
2023/04/11 07:49:32;;;;;;;9.32;2.00;;;10.40;68.50;;;;;;5116847;28;20036;-69
2023/04/11 07:51:58;;;;;;;7.38;1.67;;;10.30;66.20;;;;;;5117323;28;20355;-71
2023/04/11 07:54:27;;;;;;;11.57;2.28;;;10.40;57.30;;;;;;5116330;28;20039;-70
2023/04/11 07:56:53;;;;;;;11.63;2.15;;;10.60;56.80;;;;;;5117278;28;20032;-66
2023/04/11 07:59:19;;;;;;;12.90;2.83;;;10.60;48.60;;;;;;5116462;28;20052;-68
2023/04/11 08:01:44;;;;;;;13.05;2.45;;;10.50;50.60;;;;;;5116379;28;20027;-67
2023/04/11 08:04:10;;;;;;;9.63;1.90;;;10.50;50.50;;;;;;5117230;28;20028;-68
2023/04/11 08:06:36;;;;;;;12.48;2.45;;;10.50;48.00;;;;;;5117169;28;20035;-70
2023/04/11 08:09:02;;;;;;;8.50;1.92;;;10.50;46.10;;;;;;5116098;28;20039;-69
2023/04/11 08:11:28;;;;;;;8.90;2.70;;;10.80;42.90;;;;;;5117073;28;20035;-65
2023/04/11 08:13:54;;;;;;;14.95;2.88;;;11.00;28.00;;;;;;5115959;28;20032;-65
2023/04/11 08:16:20;;;;;;;11.25;2.97;;;11.00;33.60;;;;;;5116875;28;20092;-71
2023/04/11 08:18:46;;;;;;;11.35;3.03;;;11.20;23.40;;;;;;5082383;28;20027;-66
2023/04/11 08:21:12;;;;;;;17.63;3.47;;;11.10;15.90;;;;;;5116209;28;20035;-73
2023/04/11 08:23:40;;;;;;;12.15;2.78;;;11.10;14.00;;;;;;5116884;28;20031;-65
2023/04/11 08:26:07;;;;;;;14.52;3.28;;;11.10;12.20;;;;;;5116870;28;20044;-71
2023/04/11 08:28:34;;;;;;;13.95;3.60;;;11.20;2.80;;;;;;5120829;28;20366;-71
2023/04/11 08:31:01;;;;;;;12.07;3.67;;;11.30;1.00;;;;;;5121403;28;20343;-67
2023/04/11 08:33:27;;;;;;;13.13;3.47;;;11.20;1.00;;;;;;5120904;28;20392;-71
2023/04/11 08:35:52;;;;;;;17.85;4.72;;;11.20;1.00;;;;;;5120978;28;20051;-64
2023/04/11 08:38:19;;;;;;;14.55;3.85;;;11.20;1.00;;;;;;5121208;28;20062;-69
2023/04/11 08:40:45;;;;;;;13.13;3.88;;;11.40;1.00;;;;;;5120865;28;20025;-72
2023/04/11 08:43:11;;;;;;;15.80;4.90;;;11.50;1.00;;;;;;5120833;28;20427;-69
2023/04/11 08:45:40;;;;;;;17.10;4.32;;;11.70;1.00;;;;;;5119921;28;20400;-69
2023/04/11 08:48:07;;;;;;;13.15;4.05;;;11.80;1.00;;;;;;5120771;28;20350;-71
2023/04/11 08:50:34;;;;;;;13.07;4.25;;;11.70;1.00;;;;;;5120687;28;20085;-68
2023/04/11 08:53:03;;;;;;;15.35;3.92;;;11.80;1.00;;;;;;5121213;28;20036;-66
2023/04/11 08:55:29;;;;;;;18.55;4.63;;;12.00;1.00;;;;;;5120619;28;20036;-67
2023/04/11 08:57:58;;;;;;;13.15;3.35;;;12.00;1.00;;;;;;5120440;28;20030;-69
2023/04/11 09:00:27;;;;;;;11.80;2.67;;;12.30;1.00;;;;;;5120924;28;20340;-66
2023/04/11 09:03:14;;;;;;;5.53;1.85;;;12.40;1.00;;;;;;5120751;28;20063;-70
2023/04/11 09:05:43;;;;;;;13.55;3.65;;;12.30;1.00;;;;;;5120793;28;20457;-72
2023/04/11 09:08:10;;;;;;;10.20;2.33;;;12.30;1.00;;;;;;5120733;28;20089;-70
2023/04/11 09:10:41;;;;;;;7.88;1.63;;;12.50;1.00;;;;;;5119767;28;20036;-71
2023/04/11 09:13:26;;;;;;;7.07;1.40;;;12.30;1.00;;;;;;5120215;28;20078;-69
2023/04/11 09:16:07;;;;;;;6.57;1.50;;;12.20;1.00;;;;;;5119540;28;20032;-68
2023/04/11 09:18:43;;;;;;;7.93;1.70;;;12.00;1.00;;;;;;5120069;28;20099;-67
2023/04/11 09:21:14;;;;;;;8.93;1.20;;;12.10;1.00;;;;;;5120102;28;20032;-68
2023/04/11 09:23:40;;;;;;;6.88;1.10;;;12.20;1.00;;;;;;5120062;28;20023;-66
2023/04/11 09:26:08;;;;;;;7.47;1.50;;;12.20;99.90;;;;;;5119985;28;20061;-64
2023/04/11 09:28:49;;;;;;;6.55;1.30;;;12.10;99.90;;;;;;5119947;28;20047;-70
2023/04/11 09:31:17;;;;;;;9.75;1.58;;;12.20;1.00;;;;;;5119905;28;20035;-68
2023/04/11 09:33:53;;;;;;;7.15;1.70;;;12.30;1.00;;;;;;5118942;28;20046;-65
2023/04/11 09:36:22;;;;;;;7.47;1.23;;;12.30;1.00;;;;;;5120204;28;20297;-69
2023/04/11 09:38:47;;;;;;;7.75;1.65;;;12.20;1.00;;;;;;5118059;28;20346;-68
2023/04/11 09:41:13;;;;;;;5.53;1.17;;;12.20;1.00;;;;;;5119720;28;20039;-69
2023/04/11 09:43:54;;;;;;;8.40;1.33;;;12.20;1.00;;;;;;5119592;28;20084;-69
2023/04/11 09:46:20;;;;;;;6.75;1.58;;;12.30;1.00;;;;;;5118907;28;20031;-68
2023/04/11 09:48:47;;;;;;;4.70;1.55;;;12.30;1.00;;;;;;5118726;28;20058;-67
2023/04/11 09:51:14;;;;;;;8.43;1.40;;;12.50;82.30;;;;;;5101684;28;20396;-69
2023/04/11 09:53:41;;;;;;;6.82;1.35;;;12.60;89.50;;;;;;5119489;28;20039;-68
2023/04/11 09:56:07;;;;;;;7.55;1.65;;;12.50;99.90;;;;;;5119521;28;20024;-69
2023/04/11 09:58:35;;;;;;;8.63;1.40;;;12.60;99.90;;;;;;5119340;28;20054;-68
2023/04/11 10:01:02;;;;;;;10.73;1.50;;;12.70;99.90;;;;;;5119327;28;20035;-69
2023/04/11 10:03:33;;;;;;;11.07;2.28;;;12.70;99.90;;;;;;5119486;28;20043;-69
2023/04/11 10:06:06;;;;;;;6.40;1.75;;;12.80;99.90;;;;;;5119299;28;20051;-69
2023/04/11 10:08:35;;;;;;;9.85;1.75;;;12.70;99.90;;;;;;5118509;28;20046;-70
2023/04/11 10:11:13;;;;;;;7.85;1.63;;;13.00;99.90;;;;;;5119124;28;20063;-68
2023/04/11 10:13:40;;;;;;;5.32;1.45;;;13.20;99.90;;;;;;5119083;28;20114;-70
2023/04/11 10:16:10;;;;;;;5.30;1.52;;;13.20;96.70;;;;;;5119030;28;20077;-70
2023/04/11 10:18:37;;;;;;;6.53;1.65;;;13.50;99.90;;;;;;5118456;28;20043;-69
2023/04/11 10:21:24;;;;;;;7.20;1.58;;;13.80;1.00;;;;;;5118803;28;20027;-68
2023/04/11 10:24:09;;;;;;;4.38;1.35;;;14.00;1.00;;;;;;5118933;28;20042;-69
2023/04/11 10:27:08;;;;;;;5.53;1.30;;;14.10;1.00;;;;;;5118008;28;20019;-69
2023/04/11 10:29:47;;;;;;;2.95;0.93;;;14.30;21.50;;;;;;5073796;28;20134;-68
2023/04/11 10:32:18;;;;;;;4.18;1.10;;;14.30;1.00;;;;;;5117865;28;20050;-68
2023/04/11 10:34:53;;;;;;;6.63;1.25;;;14.40;99.90;;;;;;5118467;28;20111;-72
2023/04/11 10:37:34;;;;;;;6.10;1.30;;;14.30;1.00;;;;;;5118869;28;20032;-66
2023/04/11 10:40:11;;;;;;;5.85;1.05;;;14.30;1.00;;;;;;5118538;28;20023;-66
2023/04/11 10:42:41;;;;;;;5.82;1.33;;;14.10;99.90;;;;;;5117754;28;20044;-71
2023/04/11 10:45:25;;;;;;;4.50;0.98;;;14.60;1.00;;;;;;5118418;28;20452;-72
2023/04/11 10:47:57;;;;;;;5.90;1.10;;;14.80;99.90;;;;;;5118796;28;20020;-72
2023/04/11 10:50:26;;;;;;;5.82;1.02;;;15.20;1.00;;;;;;5118866;28;20377;-71
2023/04/11 10:52:58;;;;;;;2.78;0.95;;;16.20;99.90;;;;;;5118395;28;20027;-73
2023/04/11 10:55:25;;;;;;;;;;;16.40;99.90;;;;;;5119337;28;20027;-72
2023/04/11 10:58:12;;;;;;;3.83;1.00;;;16.70;99.90;;;;;;5118425;28;19908;-70
2023/04/11 11:03:15;;;;;;;7.03;1.30;;;15.70;1.00;;;;;;5118481;28;20106;-69
2023/04/11 11:05:41;;;;;;;5.88;1.15;;;15.90;1.00;;;;;;5118076;27;20136;-68
2023/04/11 11:08:07;;;;;;;4.53;1.33;;;16.30;1.00;;;;;;5118140;28;20031;-71
2023/04/11 11:10:37;;;;;;;5.80;1.40;;;16.50;1.00;;;;;;5118714;28;20023;-67
2023/04/11 11:13:03;;;;;;;4.30;1.33;;;17.10;99.90;;;;;;5118301;28;20077;-75
2023/04/11 11:15:35;;;;;;;4.82;1.10;;;16.90;99.90;;;;;;5118685;28;20191;-72
2023/04/11 11:18:02;;;;;;;5.30;1.00;;;17.60;1.00;;;;;;5117908;28;20059;-68
2023/04/11 11:20:27;;;;;;;7.38;1.33;;;17.70;1.00;;;;;;5117794;28;20027;-69
2023/04/11 11:22:58;;;;;;;4.93;1.23;;;18.20;1.00;;;;;;5120206;28;20035;-70
2023/04/11 11:25:24;;;;;;;5.60;1.40;;;18.40;1.00;;;;;;5117171;28;20042;-72
2023/04/11 11:28:00;;;;;;;4.03;1.48;;;18.40;99.90;;;;;;5117894;28;20027;-71
2023/04/11 11:30:27;;;;;;;6.32;1.17;;;17.80;1.00;;;;;;5116943;28;20050;-71
2023/04/11 11:32:53;;;;;;;5.97;1.42;;;16.40;62.30;;;;;;5116687;28;20028;-61
2023/04/11 11:35:19;;;;;;;5.65;1.45;;;16.20;1.00;;;;;;5117671;28;20027;-69
2023/04/11 11:37:45;;;;;;;6.22;1.45;;;16.20;99.90;;;;;;5117616;28;20030;-69
2023/04/11 11:40:14;;;;;;;4.75;1.17;;;15.50;99.90;;;;;;5117535;28;20024;-66
2023/04/11 11:42:42;;;;;;;2.55;0.88;;;15.70;99.90;;;;;;5117379;28;20054;-69
2023/04/11 11:45:20;;;;;;;4.60;1.15;;;16.40;97.30;;;;;;5117588;28;20436;-74
2023/04/11 11:47:47;;;;;;;4.93;1.13;;;16.10;1.00;;;;;;5117510;28;20089;-69
2023/04/11 11:50:31;;;;;;;5.10;1.10;;;15.00;1.00;;;;;;5117955;28;20031;-69
2023/04/11 11:53:17;;;;;;;3.60;0.98;;;13.80;74.80;;;;;;5117341;28;20043;-59
2023/04/11 11:55:43;;;;;;;5.00;1.00;;;12.30;1.00;;;;;;5117376;28;20047;-64
2023/04/11 11:58:09;;;;;;;2.35;0.98;;;11.50;1.00;;;;;;5117387;28;20051;-62
2023/04/11 12:00:40;;;;;;;4.15;1.00;;;11.50;1.00;;;;;;5116743;28;20030;-72
2023/04/11 12:03:10;;;;;;;2.95;0.73;;;11.40;1.00;;;;;;5122795;28;20038;-72
2023/04/11 12:05:36;;;;;;;3.28;0.70;;;12.00;1.00;;;;;;5124505;27;20020;-68
2023/04/11 12:08:06;;;;;;;1.80;0.70;;;12.70;1.00;;;;;;5123340;28;20108;-68
2023/04/11 12:10:50;;;;;;;1.85;0.63;;;13.80;1.00;;;;;;5124086;27;20054;-66
2023/04/11 12:13:25;;;;;;;3.00;0.90;;;14.30;1.00;;;;;;5124326;27;20027;-65
2023/04/11 12:15:53;;;;;;;2.20;0.80;;;13.90;1.00;;;;;;5124025;27;20118;-65
2023/04/11 12:18:21;;;;;;;2.63;0.65;;;13.00;1.00;;;;;;5123990;27;20028;-68
2023/04/11 12:20:47;;;;;;;2.72;0.70;;;13.30;1.00;;;;;;5123211;28;20400;-67
2023/04/11 12:23:13;;;;;;;2.53;0.70;;;14.50;1.00;;;;;;5123142;28;20027;-69
2023/04/11 12:25:39;;;;;;;4.65;0.80;;;16.90;1.00;;;;;;5124069;28;20035;-65
2023/04/11 12:28:06;;;;;;;5.75;0.90;;;18.00;1.00;;;;;;5106071;28;20027;-69
2023/04/11 12:30:32;;;;;;;4.85;1.05;;;18.90;1.00;;;;;;5123817;27;20324;-68
2023/04/11 12:32:58;;;;;;;5.68;1.00;;;20.40;1.00;;;;;;5122975;28;20100;-66
2023/04/11 12:35:24;;;;;;;5.35;0.95;;;21.00;1.00;;;;;;5124579;28;20400;-70
2023/04/11 12:37:50;;;;;;;4.82;1.20;;;20.00;1.00;;;;;;5123322;28;20028;-69
2023/04/11 12:40:16;;;;;;;4.85;1.10;;;20.20;1.00;;;;;;5123831;27;20032;-71
2023/04/11 12:42:44;;;;;;;4.15;1.20;;;21.50;1.00;;;;;;5123671;27;20513;-72
2023/04/11 12:45:11;;;;;;;4.15;1.13;;;22.20;99.90;;;;;;5123983;27;20035;-73
2023/04/11 12:47:37;;;;;;;7.53;1.33;;;22.00;99.90;;;;;;5123864;27;20401;-63
2023/04/11 12:50:05;;;;;;;4.68;1.20;;;21.00;99.90;;;;;;5123083;28;20027;-67
2023/04/11 12:52:31;;;;;;;4.15;1.48;;;21.20;99.90;;;;;;5123511;28;20027;-73
2023/04/11 12:54:56;;;;;;;6.55;1.30;;;20.30;99.90;;;;;;5123066;28;20036;-68
2023/04/11 12:57:22;;;;;;;5.75;1.75;;;19.40;99.90;;;;;;5122701;28;20024;-66